createdAt,value
2023-11-07T00:00:22.564Z,77.92
2023-11-07T00:03:11.061Z,78.62
2023-11-07T00:05:40.108Z,78.42
2023-11-07T00:08:08.399Z,78.41
2023-11-07T00:10:39.261Z,79.03
2023-11-07T00:13:07.447Z,79.50
2023-11-07T00:15:35.669Z,79.80
2023-11-07T00:18:04.037Z,79.76
2023-11-07T00:20:32.317Z,80.16
2023-11-07T00:23:00.735Z,79.73
2023-11-07T00:25:28.948Z,79.47
2023-11-07T00:27:57.167Z,79.22
2023-11-07T00:30:25.991Z,78.74
2023-11-07T00:32:55.241Z,78.89
2023-11-07T00:35:24.255Z,78.79
2023-11-07T00:37:52.896Z,78.43
2023-11-07T00:40:21.090Z,78.96
2023-11-07T00:42:49.308Z,78.73
2023-11-07T00:45:17.940Z,79.60
2023-11-07T00:47:47.997Z,79.75
2023-11-07T00:50:16.775Z,80.65
2023-11-07T00:52:45.106Z,80.64
2023-11-07T00:55:13.231Z,80.53
2023-11-07T00:57:41.551Z,80.51
2023-11-07T01:00:10.646Z,80.32
2023-11-07T01:02:39.551Z,80.27
2023-11-07T01:05:08.585Z,80.06
2023-11-07T01:07:37.034Z,79.85
2023-11-07T01:10:05.747Z,79.82
2023-11-07T01:12:34.371Z,79.71
2023-11-07T01:15:04.834Z,79.65
2023-11-07T01:17:33.248Z,79.86
2023-11-07T01:20:01.846Z,80.01
2023-11-07T01:22:30.155Z,79.99
2023-11-07T01:24:58.681Z,79.66
2023-11-07T01:27:26.700Z,80.10
2023-11-07T01:29:54.883Z,80.05
2023-11-07T01:32:23.142Z,79.90
2023-11-07T01:34:51.363Z,79.72
2023-11-07T01:37:19.583Z,79.51
2023-11-07T01:39:47.709Z,79.65
2023-11-07T01:42:15.930Z,79.82
2023-11-07T01:44:52.013Z,80.02
2023-11-07T01:47:24.650Z,80.05
2023-11-07T01:49:53.929Z,79.42
2023-11-07T01:52:22.969Z,79.54
2023-11-07T01:54:55.183Z,79.68
2023-11-07T01:57:23.622Z,79.75
2023-11-07T01:59:54.383Z,79.77
2023-11-07T02:02:24.013Z,79.62
2023-11-07T02:04:52.334Z,79.92
2023-11-07T02:07:20.609Z,79.61
2023-11-07T02:09:48.826Z,79.96
2023-11-07T02:12:17.048Z,79.88
2023-11-07T02:14:45.796Z,79.74
2023-11-07T02:17:14.111Z,79.85
2023-11-07T02:19:42.307Z,80.02
2023-11-07T02:22:14.297Z,79.93
2023-11-07T02:24:42.618Z,80.72
2023-11-07T02:27:11.086Z,80.63
2023-11-07T02:29:39.343Z,81.42
2023-11-07T02:32:07.719Z,81.68
2023-11-07T02:34:35.943Z,81.53
2023-11-07T02:37:04.501Z,81.71
2023-11-07T02:39:32.787Z,81.95
2023-11-07T02:42:01.181Z,81.87
2023-11-07T02:44:29.633Z,81.64
2023-11-07T02:46:57.747Z,81.65
2023-11-07T02:49:26.231Z,81.37
2023-11-07T02:51:54.490Z,81.31
2023-11-07T02:54:23.319Z,80.86
2023-11-07T02:56:51.558Z,81.04
2023-11-07T02:59:19.752Z,81.40
2023-11-07T03:01:52.024Z,81.51
2023-11-07T03:04:20.664Z,81.58
2023-11-07T03:06:49.014Z,81.95
2023-11-07T03:09:17.372Z,82.45
2023-11-07T03:11:45.693Z,82.84
2023-11-07T03:14:14.088Z,82.57
2023-11-07T03:16:42.614Z,82.27
2023-11-07T03:19:10.720Z,82.25
2023-11-07T03:21:39.155Z,82.50
2023-11-07T03:24:10.680Z,82.21
2023-11-07T03:26:38.927Z,82.92
2023-11-07T03:29:07.734Z,83.13
2023-11-07T03:31:36.769Z,83.03
2023-11-07T03:34:06.263Z,82.71
2023-11-07T03:36:34.830Z,82.48
2023-11-07T03:39:03.699Z,82.04
2023-11-07T03:41:32.067Z,82.24
2023-11-07T03:44:00.368Z,81.77
2023-11-07T03:46:28.592Z,81.69
2023-11-07T03:48:56.870Z,81.67
2023-11-07T03:51:25.223Z,81.46
2023-11-07T03:53:55.298Z,81.22
2023-11-07T03:56:24.278Z,81.09
2023-11-07T03:58:52.698Z,81.03
2023-11-07T04:01:21.016Z,81.06
2023-11-07T04:03:49.238Z,80.46
2023-11-07T04:06:17.863Z,80.11
2023-11-07T04:08:46.323Z,79.97
2023-11-07T04:11:14.999Z,80.38
2023-11-07T04:13:43.952Z,80.24
2023-11-07T04:16:12.145Z,80.70
2023-11-07T04:18:41.349Z,81.00
2023-11-07T04:21:09.742Z,81.27
2023-11-07T04:23:38.553Z,81.80
2023-11-07T04:26:09.030Z,81.86
2023-11-07T04:28:40.767Z,81.83
2023-11-07T04:31:09.233Z,81.70
2023-11-07T04:33:37.971Z,81.38
2023-11-07T04:36:07.055Z,81.95
2023-11-07T04:38:36.293Z,81.82
2023-11-07T04:41:04.780Z,81.55
2023-11-07T04:43:37.226Z,81.69
2023-11-07T04:46:06.274Z,82.13
2023-11-07T04:48:34.733Z,82.10
2023-11-07T04:51:04.159Z,82.45
2023-11-07T04:53:34.348Z,81.63
2023-11-07T04:56:02.734Z,81.77
2023-11-07T04:58:30.954Z,80.93
2023-11-07T05:00:59.080Z,80.86
2023-11-07T05:03:33.330Z,81.54
2023-11-07T05:06:08.042Z,81.52
2023-11-07T05:08:36.424Z,81.17
2023-11-07T05:11:05.206Z,80.86
2023-11-07T05:13:33.334Z,81.60
2023-11-07T05:16:01.557Z,81.94
2023-11-07T05:18:29.856Z,82.22
2023-11-07T05:20:58.234Z,82.18
2023-11-07T05:23:26.513Z,82.42
2023-11-07T05:25:55.637Z,82.54
2023-11-07T05:28:23.858Z,82.34
2023-11-07T05:30:51.998Z,82.49
2023-11-07T05:33:20.426Z,82.23
2023-11-07T05:35:48.690Z,81.76
2023-11-07T05:38:17.962Z,81.85
2023-11-07T05:40:46.473Z,81.88
2023-11-07T05:43:15.093Z,81.16
2023-11-07T05:45:43.315Z,80.74
2023-11-07T05:48:12.054Z,80.54
2023-11-07T05:50:40.999Z,80.77
2023-11-07T05:53:09.804Z,80.54
2023-11-07T05:55:38.116Z,80.71
2023-11-07T05:58:08.583Z,80.82
2023-11-07T06:00:36.940Z,80.72
2023-11-07T06:03:06.445Z,80.49
2023-11-07T06:05:35.550Z,80.15
2023-11-07T06:08:04.103Z,80.67
2023-11-07T06:10:32.327Z,80.20
2023-11-07T06:13:00.539Z,79.81
2023-11-07T06:15:29.477Z,79.73
2023-11-07T06:17:58.145Z,79.40
2023-11-07T06:20:26.410Z,79.62
2023-11-07T06:22:55.834Z,79.83
2023-11-07T06:25:25.255Z,79.76
2023-11-07T06:27:53.570Z,79.80
2023-11-07T06:30:23.209Z,79.39
2023-11-07T06:32:51.506Z,78.69
2023-11-07T06:35:20.039Z,78.65
2023-11-07T06:37:48.266Z,78.27
2023-11-07T06:40:19.411Z,78.11
2023-11-07T06:42:48.452Z,78.16
2023-11-07T06:45:17.005Z,77.38
2023-11-07T06:47:47.427Z,77.03
2023-11-07T06:50:17.342Z,77.00
2023-11-07T06:52:51.707Z,76.72
2023-11-07T06:55:26.541Z,76.59
2023-11-07T06:57:57.174Z,76.61
2023-11-07T07:00:28.442Z,76.26
2023-11-07T07:02:58.104Z,74.55
2023-11-07T07:05:27.502Z,74.31
2023-11-07T07:07:56.854Z,73.99
2023-11-07T07:10:25.443Z,74.13
2023-11-07T07:12:55.053Z,74.21
2023-11-07T07:15:23.383Z,73.51
2023-11-07T07:17:52.849Z,72.33
2023-11-07T07:20:21.026Z,71.29
2023-11-07T07:22:49.348Z,71.12
2023-11-07T07:25:21.807Z,70.21
2023-11-07T07:27:51.295Z,68.83
2023-11-07T07:30:27.705Z,67.66
2023-11-07T07:32:57.071Z,66.66
2023-11-07T07:35:28.243Z,66.12
2023-11-07T07:37:57.572Z,66.75
2023-11-07T07:40:27.766Z,66.76
2023-11-07T07:42:59.797Z,65.55
2023-11-07T07:45:28.515Z,66.13
2023-11-07T07:47:58.797Z,67.47
2023-11-07T07:50:31.998Z,67.43
2023-11-07T07:53:03.659Z,67.25
2023-11-07T07:55:35.234Z,66.41
2023-11-07T07:58:07.914Z,66.30
2023-11-07T08:00:39.126Z,66.96
2023-11-07T08:03:12.693Z,67.08
2023-11-07T08:05:45.639Z,67.36
2023-11-07T08:08:18.145Z,67.20
2023-11-07T08:10:50.023Z,67.61
2023-11-07T08:13:20.187Z,67.32
2023-11-07T08:15:51.791Z,66.69
2023-11-07T08:18:20.840Z,65.91
2023-11-07T08:20:51.764Z,65.48
2023-11-07T08:23:20.190Z,65.47
2023-11-07T08:25:49.019Z,64.44
2023-11-07T08:28:18.966Z,63.56
2023-11-07T08:30:47.679Z,62.28
2023-11-07T08:33:16.001Z,61.96
2023-11-07T08:35:44.980Z,61.32
2023-11-07T08:38:13.626Z,60.60
2023-11-07T08:40:42.450Z,60.08
2023-11-07T08:43:11.090Z,58.89
2023-11-07T08:45:39.351Z,56.97
2023-11-07T08:48:08.372Z,57.27
2023-11-07T08:50:38.656Z,55.98
2023-11-07T08:53:07.333Z,55.12
2023-11-07T08:55:35.779Z,56.51
2023-11-07T08:58:04.845Z,56.71
2023-11-07T09:00:33.967Z,53.74
2023-11-07T09:03:02.361Z,55.38
2023-11-07T09:05:30.678Z,54.65
2023-11-07T09:07:58.996Z,53.36
2023-11-07T09:10:27.823Z,53.77
2023-11-07T09:12:56.037Z,53.34
2023-11-07T09:15:26.980Z,54.40
2023-11-07T09:17:55.358Z,54.56
2023-11-07T09:20:23.811Z,54.01
2023-11-07T09:22:52.165Z,53.40
2023-11-07T09:25:22.558Z,53.22
2023-11-07T09:27:53.280Z,53.25
2023-11-07T09:30:21.831Z,52.82
2023-11-07T09:32:52.291Z,53.00
2023-11-07T09:35:21.020Z,52.05
2023-11-07T09:37:51.369Z,52.11
2023-11-07T09:40:24.329Z,50.97
2023-11-07T09:42:55.310Z,51.51
2023-11-07T09:45:24.423Z,52.24
2023-11-07T09:47:53.054Z,51.75
2023-11-07T09:50:23.541Z,51.76
2023-11-07T09:52:54.221Z,51.28
2023-11-07T09:55:29.385Z,50.66
2023-11-07T09:58:15.219Z,51.10
2023-11-07T10:00:46.942Z,50.83
2023-11-07T10:03:16.869Z,51.60
2023-11-07T10:05:49.087Z,50.79
2023-11-07T10:08:20.405Z,49.55
2023-11-07T10:11:07.993Z,49.16
2023-11-07T10:13:36.363Z,49.30
2023-11-07T10:16:18.167Z,49.28
2023-11-07T10:18:51.960Z,49.06
2023-11-07T10:21:33.892Z,49.50
2023-11-07T10:24:02.750Z,48.25
2023-11-07T10:26:31.710Z,47.98
2023-11-07T10:29:17.964Z,48.36
2023-11-07T10:32:04.412Z,48.39
2023-11-07T10:34:33.583Z,47.97
2023-11-07T10:37:02.026Z,48.22
2023-11-07T10:39:31.889Z,48.54
2023-11-07T10:42:17.961Z,48.39
2023-11-07T10:44:49.781Z,48.46
2023-11-07T10:47:21.394Z,48.10
2023-11-07T10:49:52.157Z,47.37
2023-11-07T10:52:20.784Z,46.64
2023-11-07T10:54:49.198Z,45.88
2023-11-07T10:57:24.086Z,46.81
2023-11-07T11:00:21.112Z,47.35
2023-11-07T11:02:54.933Z,47.01
2023-11-07T11:05:28.138Z,46.87
2023-11-07T11:08:00.976Z,46.02
2023-11-07T11:10:30.947Z,45.21
2023-11-07T11:13:00.036Z,44.53
2023-11-07T11:15:29.596Z,44.47
2023-11-07T11:18:11.484Z,44.20
2023-11-07T11:21:18.153Z,44.00
2023-11-07T11:23:54.968Z,43.12
2023-11-07T11:26:34.038Z,42.35
2023-11-07T11:29:26.246Z,42.66
2023-11-07T11:31:55.668Z,42.40
2023-11-07T11:34:29.660Z,42.85
2023-11-07T11:36:59.525Z,42.73
2023-11-07T11:39:30.865Z,42.53
2023-11-07T11:42:02.314Z,42.12
2023-11-07T11:44:30.961Z,41.88
2023-11-07T11:47:01.144Z,41.83
2023-11-07T11:49:29.553Z,41.34
2023-11-07T11:51:59.151Z,40.55
2023-11-07T11:54:34.830Z,40.23
2023-11-07T11:57:03.049Z,40.26
2023-11-07T11:59:55.781Z,40.07
2023-11-07T12:02:41.315Z,39.68
2023-11-07T12:05:20.059Z,39.25
2023-11-07T12:07:50.026Z,39.22
2023-11-07T12:10:22.767Z,39.14
2023-11-07T12:13:02.659Z,39.00
2023-11-07T12:15:31.133Z,39.37
2023-11-07T12:18:00.564Z,39.53
2023-11-07T12:20:29.041Z,39.60
2023-11-07T12:22:57.267Z,39.64
2023-11-07T12:25:26.604Z,39.56
2023-11-07T12:27:58.093Z,39.22
2023-11-07T12:30:26.481Z,39.91
2023-11-07T12:33:03.381Z,41.00
2023-11-07T12:35:32.540Z,41.58
2023-11-07T12:38:08.428Z,41.89
2023-11-07T12:40:39.566Z,42.00
2023-11-07T12:43:10.860Z,42.07
2023-11-07T12:45:40.549Z,42.21
2023-11-07T12:48:15.401Z,42.38
2023-11-07T12:50:45.513Z,42.57
2023-11-07T12:53:16.254Z,42.65
2023-11-07T12:56:04.680Z,42.77
2023-11-07T12:58:32.978Z,43.32
2023-11-07T13:01:05.659Z,43.30
2023-11-07T13:03:35.704Z,43.38
2023-11-07T13:06:06.198Z,43.89
2023-11-07T13:08:36.546Z,44.53
2023-11-07T13:11:11.892Z,44.80
2023-11-07T13:13:51.337Z,45.53
2023-11-07T13:16:20.478Z,46.36
2023-11-07T13:18:59.415Z,47.10
2023-11-07T13:21:28.408Z,47.75
2023-11-07T13:23:56.940Z,49.02
2023-11-07T13:26:26.038Z,49.92
2023-11-07T13:28:54.260Z,50.65
2023-11-07T13:31:22.875Z,51.61
2023-11-07T13:33:52.094Z,52.63
2023-11-07T13:36:21.481Z,53.60
2023-11-07T13:38:49.873Z,54.82
2023-11-07T13:41:18.398Z,56.14
2023-11-07T13:43:47.105Z,57.53
2023-11-07T13:46:19.753Z,58.94
2023-11-07T13:48:54.492Z,59.73
2023-11-07T13:51:23.037Z,61.08
2023-11-07T13:53:52.684Z,62.17
2023-11-07T13:56:22.277Z,63.17
2023-11-07T13:58:50.772Z,63.85
2023-11-07T14:01:19.081Z,64.79
2023-11-07T14:03:47.917Z,65.71
2023-11-07T14:06:19.613Z,66.39
2023-11-07T14:08:49.227Z,67.17
2023-11-07T14:11:17.978Z,67.79
2023-11-07T14:13:51.920Z,68.48
2023-11-07T14:16:20.344Z,68.79
2023-11-07T14:18:51.085Z,68.78
2023-11-07T14:21:21.316Z,69.13
2023-11-07T14:23:49.888Z,69.19
2023-11-07T14:26:19.146Z,69.32
2023-11-07T14:28:55.380Z,69.24
2023-11-07T14:31:31.481Z,69.38
2023-11-07T14:34:00.561Z,69.30
2023-11-07T14:36:29.652Z,69.37
2023-11-07T14:38:58.339Z,69.82
2023-11-07T14:41:29.940Z,69.73
2023-11-07T14:43:58.271Z,69.78
2023-11-07T14:46:26.391Z,70.10
2023-11-07T14:48:57.585Z,70.61
2023-11-07T14:51:26.691Z,71.55
2023-11-07T14:53:55.238Z,71.65
2023-11-07T14:56:25.603Z,72.71
2023-11-07T14:58:54.729Z,72.89
2023-11-07T15:01:23.973Z,73.50
2023-11-07T15:03:52.622Z,73.70
2023-11-07T15:06:21.338Z,74.59
2023-11-07T15:08:49.901Z,75.11
2023-11-07T15:11:18.231Z,75.27
2023-11-07T15:13:46.449Z,74.97
2023-11-07T15:16:15.773Z,74.96
2023-11-07T15:18:44.087Z,75.17
2023-11-07T15:21:13.017Z,75.37
2023-11-07T15:23:42.133Z,75.86
2023-11-07T15:26:10.453Z,76.10
2023-11-07T15:28:38.876Z,76.12
2023-11-07T15:31:07.197Z,75.69
2023-11-07T15:33:35.986Z,75.65
2023-11-07T15:36:04.963Z,75.39
2023-11-07T15:38:33.969Z,75.96
2023-11-07T15:41:02.291Z,76.17
2023-11-07T15:43:30.508Z,76.59
2023-11-07T15:46:01.073Z,77.30
2023-11-07T15:48:29.430Z,77.96
2023-11-07T15:50:58.007Z,78.36
2023-11-07T15:53:26.418Z,79.44
2023-11-07T15:55:54.720Z,81.30
2023-11-07T15:58:23.142Z,82.85
2023-11-07T16:00:51.364Z,83.59
2023-11-07T16:03:20.027Z,84.18
2023-11-07T16:05:48.572Z,84.05
2023-11-07T16:08:17.528Z,83.99
2023-11-07T16:10:46.555Z,84.65
2023-11-07T16:13:15.571Z,84.92
2023-11-07T16:15:43.913Z,84.95
2023-11-07T16:18:12.706Z,85.81
2023-11-07T16:20:44.080Z,86.06
2023-11-07T16:23:12.693Z,86.50
2023-11-07T16:25:41.247Z,86.32
2023-11-07T16:28:10.015Z,87.30
2023-11-07T16:30:40.512Z,87.16
2023-11-07T16:55:48.171Z,88.64
2023-11-07T16:58:16.601Z,88.14
2023-11-07T17:00:46.518Z,88.16
2023-11-07T17:03:15.145Z,88.69
2023-11-07T17:05:43.767Z,88.97
2023-11-07T17:08:13.864Z,88.78
2023-11-07T17:10:42.312Z,89.21
2023-11-07T17:13:11.742Z,88.86
2023-11-07T17:15:42.967Z,89.02
2023-11-07T17:18:11.670Z,89.09
2023-11-07T17:20:40.116Z,89.65
2023-11-07T17:23:08.333Z,89.50
2023-11-07T17:25:36.654Z,89.54
2023-11-07T17:28:05.273Z,89.74
2023-11-07T17:30:33.306Z,90.01
2023-11-07T17:33:01.920Z,90.97
2023-11-07T17:35:30.485Z,90.42
2023-11-07T17:37:59.103Z,90.92
2023-11-07T17:40:29.394Z,91.92
2023-11-07T17:42:57.605Z,91.43
2023-11-07T17:45:25.939Z,91.36
2023-11-07T17:47:56.415Z,90.96
2023-11-07T17:50:26.297Z,90.76
2023-11-07T17:52:54.507Z,90.48
2023-11-07T17:55:23.925Z,89.88
2023-11-07T17:57:52.273Z,89.30
2023-11-07T18:00:20.676Z,88.72
2023-11-07T18:02:49.363Z,88.98
2023-11-07T18:05:17.939Z,89.08
2023-11-07T18:07:46.140Z,89.15
2023-11-07T18:10:14.768Z,89.51
2023-11-07T18:12:43.180Z,89.69
2023-11-07T18:15:11.633Z,90.05
2023-11-07T18:17:40.116Z,90.23
2023-11-07T18:20:13.279Z,90.20
2023-11-07T18:22:42.024Z,89.98
2023-11-07T18:25:11.119Z,89.68
2023-11-07T18:27:39.983Z,89.18
2023-11-07T18:30:09.254Z,88.90
2023-11-07T18:32:38.427Z,88.75
2023-11-07T18:35:07.831Z,88.65
2023-11-07T18:55:23.801Z,89.86
2023-11-07T18:57:51.999Z,85.93
2023-11-07T19:00:22.523Z,86.34
2023-11-07T19:02:50.986Z,87.93
2023-11-07T19:05:19.254Z,88.72
2023-11-07T19:07:48.453Z,89.77
2023-11-07T19:10:20.725Z,88.89
2023-11-07T19:12:48.948Z,84.91
2023-11-07T19:15:17.817Z,83.26
2023-11-07T19:17:47.717Z,83.90
2023-11-07T19:20:17.924Z,85.62
2023-11-07T19:22:46.856Z,86.53
2023-11-07T19:25:15.267Z,86.83
2023-11-07T19:27:43.592Z,86.40
2023-11-07T19:30:12.741Z,87.14
2023-11-07T19:32:42.315Z,87.53
2023-11-07T19:35:12.918Z,88.19
2023-11-07T19:37:41.889Z,89.76
2023-11-07T19:40:10.837Z,90.87
2023-11-07T19:42:40.375Z,91.27
2023-11-07T19:45:09.591Z,92.01
2023-11-07T19:47:38.522Z,93.31
2023-11-07T19:50:08.128Z,93.71
2023-11-07T19:52:36.431Z,94.22
2023-11-07T19:55:05.254Z,94.09
2023-11-07T19:57:33.642Z,94.04
2023-11-07T20:00:02.157Z,93.69
2023-11-07T20:02:32.826Z,93.61
2023-11-07T20:05:01.173Z,93.74
2023-11-07T20:07:29.467Z,94.27
2023-11-07T20:09:57.689Z,93.56
2023-11-07T20:12:26.048Z,93.66
2023-11-07T20:14:54.220Z,93.87
2023-11-07T20:17:22.355Z,94.61
2023-11-07T20:19:50.565Z,94.91
2023-11-07T20:22:19.093Z,93.91
2023-11-07T20:24:47.309Z,93.47
2023-11-07T20:27:15.982Z,92.70
2023-11-07T20:29:45.960Z,92.61
2023-11-07T20:32:14.474Z,92.30
2023-11-07T20:34:48.408Z,91.53
2023-11-07T20:37:21.667Z,91.43
2023-11-07T20:39:49.977Z,91.40
2023-11-07T20:42:18.641Z,91.70
2023-11-07T20:44:49.838Z,92.98
2023-11-07T20:47:20.356Z,93.86
2023-11-07T20:49:50.597Z,94.04
2023-11-07T20:52:25.302Z,94.27
2023-11-07T20:54:57.072Z,94.84
2023-11-07T20:57:26.071Z,95.18
2023-11-07T20:59:55.612Z,95.13
2023-11-07T21:02:25.643Z,94.99
2023-11-07T21:04:56.064Z,94.78
2023-11-07T21:07:24.583Z,94.80
2023-11-07T21:09:53.209Z,95.28
2023-11-07T21:12:21.501Z,95.45
2023-11-07T21:14:51.555Z,95.39
2023-11-07T21:17:21.230Z,95.58
2023-11-07T21:19:49.561Z,94.50
2023-11-07T21:22:17.816Z,91.73
2023-11-07T21:24:46.949Z,91.96
2023-11-07T21:27:16.066Z,91.55
2023-11-07T21:29:44.686Z,91.04
2023-11-07T21:32:12.909Z,90.89
2023-11-07T21:34:42.334Z,90.42
2023-11-07T21:37:11.799Z,90.30
2023-11-07T21:39:41.059Z,90.28
2023-11-07T21:42:11.292Z,89.62
2023-11-07T21:44:41.138Z,89.39
2023-11-07T21:47:11.337Z,90.35
2023-11-07T21:49:42.195Z,90.81
2023-11-07T21:52:10.714Z,91.23
2023-11-07T21:54:38.967Z,91.27
2023-11-07T21:57:07.184Z,91.50
2023-11-07T21:59:35.784Z,91.08
2023-11-07T22:02:04.206Z,90.89
2023-11-07T22:04:32.360Z,91.16
2023-11-07T22:07:00.614Z,91.48
2023-11-07T22:09:29.102Z,91.21
2023-11-07T22:11:57.383Z,90.89
2023-11-07T22:14:25.505Z,90.50
2023-11-07T22:16:53.625Z,90.78
2023-11-07T22:19:21.960Z,90.90
2023-11-07T22:21:50.239Z,91.15
2023-11-07T22:24:18.610Z,91.15
2023-11-07T22:26:48.310Z,90.78
2023-11-07T22:29:16.633Z,88.81
2023-11-07T22:31:44.851Z,87.94
2023-11-07T22:34:13.117Z,88.67
2023-11-07T22:36:42.027Z,88.95
2023-11-07T22:39:10.923Z,88.49
2023-11-07T22:41:39.237Z,87.88
2023-11-07T22:44:07.358Z,87.70
2023-11-07T22:46:35.477Z,88.23
2023-11-07T22:49:03.773Z,87.94
2023-11-07T22:51:33.657Z,88.20
2023-11-07T22:54:02.043Z,87.50
2023-11-07T22:56:30.262Z,87.88
2023-11-07T22:58:58.274Z,88.43
2023-11-07T23:01:26.409Z,89.44
2023-11-07T23:03:54.622Z,89.01
2023-11-07T23:06:24.579Z,89.45
2023-11-07T23:08:54.745Z,89.03
2023-11-07T23:11:23.610Z,89.16
2023-11-07T23:13:51.921Z,89.31
2023-11-07T23:16:20.442Z,89.48
2023-11-07T23:18:48.527Z,89.34
2023-11-07T23:21:17.113Z,89.53
2023-11-07T23:23:45.306Z,89.09
2023-11-07T23:26:13.422Z,89.41
2023-11-07T23:28:41.643Z,89.66
2023-11-07T23:31:09.988Z,89.93
2023-11-07T23:33:38.759Z,89.87
2023-11-07T23:36:07.825Z,89.39
2023-11-07T23:38:36.244Z,89.71
2023-11-07T23:41:05.241Z,89.94
2023-11-07T23:43:33.474Z,89.56
2023-11-07T23:46:01.699Z,90.28
2023-11-07T23:48:30.641Z,90.61
2023-11-07T23:50:59.036Z,91.50
2023-11-07T23:53:27.279Z,90.78
2023-11-07T23:55:55.372Z,90.54
2023-11-07T23:58:23.499Z,90.51
